createdAt,value
2017-07-11T00:00:26.113Z,71.37
2017-07-11T00:02:53.563Z,71.53
2017-07-11T00:05:20.907Z,73.13
2017-07-11T00:07:48.299Z,73.82
2017-07-11T00:10:15.700Z,73.50
2017-07-11T00:12:43.100Z,73.26
2017-07-11T00:15:10.500Z,74.11
2017-07-11T00:17:37.891Z,74.57
2017-07-11T00:20:05.303Z,75.37
2017-07-11T00:22:32.682Z,76.16
2017-07-11T00:25:00.095Z,76.69
2017-07-11T00:27:27.484Z,76.37
2017-07-11T00:29:55.210Z,76.71
2017-07-11T00:32:22.732Z,76.60
2017-07-11T00:34:50.123Z,76.42
2017-07-11T00:37:17.526Z,76.69
2017-07-11T00:39:44.928Z,76.85
2017-07-11T00:42:12.320Z,76.89
2017-07-11T00:44:39.715Z,77.32
2017-07-11T00:47:07.113Z,76.83
2017-07-11T00:49:34.504Z,77.23
2017-07-11T00:52:01.904Z,77.29
2017-07-11T00:54:29.292Z,77.38
2017-07-11T00:56:56.696Z,77.66
2017-07-11T00:59:24.094Z,77.30
2017-07-11T01:01:51.495Z,77.37
2017-07-11T01:04:18.896Z,77.49
2017-07-11T01:06:46.296Z,78.04
2017-07-11T01:09:13.686Z,78.02
2017-07-11T01:11:41.088Z,78.73
2017-07-11T01:14:08.490Z,78.88
2017-07-11T01:16:35.888Z,78.33
2017-07-11T01:19:03.291Z,78.66
2017-07-11T01:21:30.688Z,78.66
2017-07-11T01:23:58.087Z,78.67
2017-07-11T01:26:25.502Z,79.16
2017-07-11T01:28:52.897Z,78.44
2017-07-11T01:31:20.293Z,79.26
2017-07-11T01:33:47.697Z,78.44
2017-07-11T01:36:15.103Z,78.13
2017-07-11T01:38:42.510Z,78.61
2017-07-11T01:41:09.899Z,78.42
2017-07-11T01:43:37.295Z,78.61
2017-07-11T01:46:04.702Z,78.26
2017-07-11T01:48:32.112Z,78.14
2017-07-11T01:50:59.502Z,78.87
2017-07-11T01:53:26.900Z,78.44
2017-07-11T01:55:54.295Z,78.06
2017-07-11T01:58:21.690Z,77.71
2017-07-11T02:00:49.079Z,77.68
2017-07-11T02:03:16.475Z,77.43
2017-07-11T02:05:43.869Z,77.43
2017-07-11T02:08:11.272Z,77.37
2017-07-11T02:10:38.669Z,77.16
2017-07-11T02:13:06.071Z,77.58
2017-07-11T02:15:33.462Z,77.72
2017-07-11T02:18:00.872Z,77.82
2017-07-11T02:20:28.244Z,77.27
2017-07-11T02:22:55.644Z,77.73
2017-07-11T02:25:23.030Z,78.04
2017-07-11T02:27:50.505Z,77.83
2017-07-11T02:30:17.885Z,78.02
2017-07-11T02:32:45.288Z,77.31
2017-07-11T02:35:12.687Z,77.87
2017-07-11T02:37:40.079Z,78.31
2017-07-11T02:40:07.479Z,78.76
2017-07-11T02:42:34.879Z,78.27
2017-07-11T02:45:02.275Z,78.19
2017-07-11T02:47:29.683Z,78.16
2017-07-11T02:49:57.085Z,78.68
2017-07-11T02:52:24.475Z,78.80
2017-07-11T02:54:51.863Z,78.26
2017-07-11T02:57:19.256Z,77.97
2017-07-11T02:59:46.650Z,77.66
2017-07-11T03:02:14.039Z,77.35
2017-07-11T03:04:41.436Z,77.50
2017-07-11T03:07:08.827Z,77.49
2017-07-11T03:09:36.526Z,77.71
2017-07-11T03:12:03.909Z,77.70
2017-07-11T03:14:31.306Z,77.42
2017-07-11T03:16:58.711Z,77.85
2017-07-11T03:19:26.113Z,77.97
2017-07-11T03:21:53.512Z,77.86
2017-07-11T03:24:20.917Z,76.73
2017-07-11T03:26:48.300Z,77.26
2017-07-11T03:29:15.698Z,77.35
2017-07-11T03:31:43.095Z,77.82
2017-07-11T03:34:10.509Z,78.79
2017-07-11T03:36:37.895Z,79.12
2017-07-11T03:39:05.302Z,78.51
2017-07-11T03:41:32.700Z,79.59
2017-07-11T03:44:00.099Z,78.17
2017-07-11T03:46:27.491Z,78.81
2017-07-11T03:48:54.883Z,78.36
2017-07-11T03:51:22.275Z,77.08
2017-07-11T03:53:49.673Z,77.60
2017-07-11T03:56:17.064Z,76.59
2017-07-11T03:58:44.724Z,76.84
2017-07-11T04:01:12.168Z,75.79
2017-07-11T04:03:39.569Z,75.55
2017-07-11T04:06:06.980Z,76.13
2017-07-11T04:08:34.407Z,76.46
2017-07-11T04:11:01.798Z,76.48
2017-07-11T04:13:29.195Z,76.12
2017-07-11T04:15:56.620Z,75.64
2017-07-11T04:18:24.016Z,75.77
2017-07-11T04:20:51.424Z,74.90
2017-07-11T04:23:18.823Z,75.31
2017-07-11T04:25:46.232Z,74.95
2017-07-11T04:28:13.634Z,74.79
2017-07-11T04:30:41.067Z,75.25
2017-07-11T04:33:08.458Z,75.10
2017-07-11T04:35:35.863Z,75.38
2017-07-11T04:38:03.498Z,75.22
2017-07-11T04:40:30.928Z,75.84
2017-07-11T04:42:58.323Z,75.50
2017-07-11T04:45:25.990Z,75.65
2017-07-11T04:47:53.397Z,75.97
2017-07-11T04:50:20.872Z,76.10
2017-07-11T04:52:48.347Z,77.25
2017-07-11T04:55:15.952Z,77.54
2017-07-11T04:57:43.394Z,76.69
2017-07-11T05:00:10.819Z,76.76
2017-07-11T05:02:38.216Z,76.86
2017-07-11T05:05:05.683Z,76.79
2017-07-11T05:07:33.091Z,76.30
2017-07-11T05:10:00.506Z,75.55
2017-07-11T05:12:27.926Z,75.52
2017-07-11T05:14:55.329Z,76.86
2017-07-11T05:17:22.727Z,77.10
2017-07-11T05:19:50.148Z,77.19
2017-07-11T05:22:17.558Z,77.44
2017-07-11T05:24:44.957Z,76.74
2017-07-11T05:27:12.368Z,76.90
2017-07-11T05:29:39.998Z,77.82
2017-07-11T05:32:07.659Z,77.17
2017-07-11T05:34:35.082Z,77.93
2017-07-11T05:37:02.498Z,78.19
2017-07-11T05:39:29.894Z,77.58
2017-07-11T05:41:57.320Z,78.50
2017-07-11T05:44:24.943Z,78.69
2017-07-11T05:46:52.360Z,79.14
2017-07-11T05:49:19.767Z,78.45
2017-07-11T05:51:47.164Z,78.31
2017-07-11T05:54:14.555Z,78.59
2017-07-11T05:56:41.963Z,77.99
2017-07-11T05:59:09.380Z,78.00
2017-07-11T06:01:36.806Z,78.29
2017-07-11T06:04:04.201Z,77.95
2017-07-11T06:06:31.607Z,78.02
2017-07-11T06:08:59.007Z,78.17
2017-07-11T06:11:26.411Z,77.76
2017-07-11T06:13:53.822Z,77.82
2017-07-11T06:16:21.224Z,77.68
2017-07-11T06:18:48.628Z,77.66
2017-07-11T06:21:16.039Z,77.37
2017-07-11T06:23:43.450Z,77.13
2017-07-11T06:26:10.855Z,77.94
2017-07-11T06:28:38.248Z,78.12
2017-07-11T06:31:05.659Z,78.08
2017-07-11T06:33:33.049Z,78.61
2017-07-11T06:36:00.475Z,77.68
2017-07-11T06:38:27.875Z,77.84
2017-07-11T06:40:55.528Z,78.66
2017-07-11T06:43:22.927Z,77.77
2017-07-11T06:45:50.327Z,77.91
2017-07-11T06:48:17.741Z,78.53
2017-07-11T06:50:45.139Z,77.79
2017-07-11T06:53:12.548Z,78.04
2017-07-11T06:55:39.947Z,78.32
2017-07-11T06:58:07.350Z,77.44
2017-07-11T07:00:34.752Z,76.82
2017-07-11T07:03:02.160Z,76.32
2017-07-11T07:05:29.567Z,76.19
2017-07-11T07:07:56.970Z,75.72
2017-07-11T07:10:24.378Z,75.23
2017-07-11T07:12:51.802Z,75.00
2017-07-11T07:15:19.206Z,74.76
2017-07-11T07:17:46.615Z,75.12
2017-07-11T07:20:14.014Z,74.87
2017-07-11T07:22:41.422Z,74.51
2017-07-11T07:25:08.854Z,75.00
2017-07-11T07:27:36.239Z,74.82
2017-07-11T07:30:03.639Z,74.62
2017-07-11T07:32:31.047Z,74.00
2017-07-11T07:34:58.750Z,73.61
2017-07-11T07:37:26.159Z,73.91
2017-07-11T07:39:53.571Z,74.20
2017-07-11T07:42:20.976Z,74.39
2017-07-11T07:44:48.391Z,74.32
2017-07-11T07:47:15.801Z,74.25
2017-07-11T07:49:43.203Z,74.21
2017-07-11T07:52:10.611Z,75.15
2017-07-11T07:54:38.016Z,74.62
2017-07-11T07:57:05.423Z,74.53
2017-07-11T07:59:32.833Z,74.81
2017-07-11T08:02:00.226Z,74.54
2017-07-11T08:04:27.635Z,73.95
2017-07-11T08:06:55.039Z,73.69
2017-07-11T08:09:22.448Z,72.92
2017-07-11T08:11:49.852Z,73.44
2017-07-11T08:14:17.264Z,72.95
2017-07-11T08:16:46.584Z,73.43
2017-07-11T08:19:14.000Z,73.92
2017-07-11T08:21:41.433Z,74.67
2017-07-11T08:24:08.842Z,73.76
2017-07-11T08:26:36.256Z,73.39
2017-07-11T08:29:03.681Z,73.51
2017-07-11T08:31:31.083Z,73.51
2017-07-11T08:33:58.485Z,74.03
2017-07-11T08:36:25.886Z,74.20
2017-07-11T08:38:53.297Z,73.17
2017-07-11T08:41:20.705Z,73.47
2017-07-11T08:43:48.100Z,73.31
2017-07-11T08:46:15.506Z,73.00
2017-07-11T08:48:42.911Z,73.26
2017-07-11T08:51:10.315Z,72.66
2017-07-11T08:53:37.718Z,73.28
2017-07-11T08:56:05.125Z,73.19
2017-07-11T08:58:32.523Z,73.36
2017-07-11T09:00:59.928Z,72.52
2017-07-11T09:03:27.332Z,72.44
2017-07-11T09:05:54.744Z,71.87
2017-07-11T09:08:22.152Z,72.24
2017-07-11T09:10:49.808Z,72.53
2017-07-11T09:13:17.214Z,71.43
2017-07-11T09:15:44.624Z,70.91
2017-07-11T09:18:12.022Z,72.46
2017-07-11T09:20:39.427Z,71.01
2017-07-11T09:23:06.864Z,70.03
2017-07-11T09:25:34.274Z,70.22
2017-07-11T09:28:01.700Z,70.18
2017-07-11T09:30:29.107Z,69.85
2017-07-11T09:32:56.503Z,70.37
2017-07-11T09:35:23.918Z,71.22
2017-07-11T09:37:51.316Z,69.65
2017-07-11T09:40:18.724Z,67.01
2017-07-11T09:42:46.130Z,67.29
2017-07-11T09:45:13.535Z,65.89
2017-07-11T09:47:40.936Z,64.86
2017-07-11T09:50:08.343Z,65.49
2017-07-11T09:52:35.749Z,62.50
2017-07-11T09:55:03.152Z,62.74
2017-07-11T09:57:30.548Z,62.74
2017-07-11T09:59:58.283Z,63.18
2017-07-11T10:02:25.684Z,63.79
2017-07-11T10:04:53.092Z,63.00
2017-07-11T10:07:20.495Z,64.65
2017-07-11T10:09:47.905Z,62.38
2017-07-11T10:12:15.298Z,63.78
2017-07-11T10:14:42.703Z,58.55
2017-07-11T10:17:10.104Z,58.72
2017-07-11T10:19:37.512Z,58.22
2017-07-11T10:22:04.911Z,59.03
2017-07-11T10:24:32.307Z,59.07
2017-07-11T10:26:59.831Z,59.83
2017-07-11T10:29:27.236Z,59.76
2017-07-11T10:31:54.659Z,59.47
2017-07-11T10:34:22.068Z,58.63
2017-07-11T10:36:49.467Z,59.58
2017-07-11T10:39:16.876Z,59.12
2017-07-11T10:41:44.309Z,58.37
2017-07-11T10:44:14.294Z,58.42
2017-07-11T10:46:41.699Z,56.84
2017-07-11T10:49:09.116Z,58.13
2017-07-11T10:51:36.508Z,58.73
2017-07-11T10:54:03.922Z,58.04
2017-07-11T10:56:31.317Z,59.66
2017-07-11T10:58:58.732Z,59.94
2017-07-11T11:01:26.135Z,60.03
2017-07-11T11:03:53.543Z,60.02
2017-07-11T11:06:20.940Z,60.86
2017-07-11T11:08:48.439Z,61.39
2017-07-11T11:11:15.845Z,61.39
2017-07-11T11:13:43.248Z,60.24
2017-07-11T11:16:10.677Z,59.51
2017-07-11T11:18:38.081Z,59.90
2017-07-11T11:21:05.491Z,60.59
2017-07-11T11:23:32.908Z,59.80
2017-07-11T11:26:00.319Z,60.57
2017-07-11T11:28:27.711Z,60.24
2017-07-11T11:30:55.120Z,60.21
2017-07-11T11:33:22.736Z,60.78
2017-07-11T11:35:50.143Z,60.55
2017-07-11T11:38:17.536Z,60.42
2017-07-11T11:40:44.960Z,61.29
2017-07-11T11:43:12.358Z,60.67
2017-07-11T11:45:39.774Z,59.77
2017-07-11T11:48:07.214Z,58.39
2017-07-11T11:50:34.628Z,58.82
2017-07-11T11:53:02.029Z,58.66
2017-07-11T11:55:29.431Z,57.95
2017-07-11T11:57:56.848Z,58.17
2017-07-11T12:00:24.467Z,58.64
2017-07-11T12:02:51.864Z,59.09
2017-07-11T12:05:19.279Z,59.15
2017-07-11T12:07:46.680Z,58.00
2017-07-11T12:10:14.300Z,57.69
2017-07-11T12:12:41.719Z,57.70
2017-07-11T12:15:10.303Z,58.08
2017-07-11T12:17:42.633Z,58.50
2017-07-11T12:20:11.327Z,59.01
2017-07-11T12:22:38.719Z,58.69
2017-07-11T12:25:06.135Z,57.75
2017-07-11T12:27:33.531Z,58.85
2017-07-11T12:30:00.947Z,59.30
2017-07-11T12:32:28.349Z,58.55
2017-07-11T12:34:55.763Z,58.03
2017-07-11T12:37:23.241Z,57.87
2017-07-11T12:39:50.655Z,56.77
2017-07-11T12:42:18.111Z,57.18
2017-07-11T12:44:45.507Z,56.13
2017-07-11T12:47:12.923Z,56.41
2017-07-11T12:49:40.320Z,56.53
2017-07-11T12:52:07.728Z,56.66
2017-07-11T12:54:35.127Z,55.74
2017-07-11T12:57:02.540Z,57.02
2017-07-11T12:59:29.940Z,56.64
2017-07-11T13:01:57.347Z,56.00
2017-07-11T13:04:24.748Z,55.22
2017-07-11T13:06:52.159Z,56.40
2017-07-11T13:09:19.569Z,56.24
2017-07-11T13:11:46.959Z,56.13
2017-07-11T13:14:14.361Z,57.09
2017-07-11T13:16:41.789Z,56.83
2017-07-11T13:19:09.990Z,56.51
2017-07-11T13:21:37.405Z,56.23
2017-07-11T13:24:04.802Z,57.09
2017-07-11T13:26:32.243Z,57.06
2017-07-11T13:28:59.639Z,54.71
2017-07-11T13:31:27.071Z,53.92
2017-07-11T13:33:54.484Z,54.04
2017-07-11T13:36:21.908Z,53.49
2017-07-11T13:38:49.312Z,53.42
2017-07-11T13:41:16.716Z,53.14
2017-07-11T13:43:44.124Z,52.79
2017-07-11T13:46:11.539Z,52.74
2017-07-11T13:48:38.948Z,52.78
2017-07-11T13:51:06.349Z,53.19
2017-07-11T13:53:33.752Z,52.03
2017-07-11T13:56:01.180Z,52.86
2017-07-11T13:58:28.573Z,51.67
2017-07-11T14:00:55.968Z,52.28
2017-07-11T14:03:23.422Z,52.45
2017-07-11T14:05:50.847Z,50.60
2017-07-11T14:08:18.266Z,51.26
2017-07-11T14:10:45.667Z,51.38
2017-07-11T14:13:13.082Z,51.33
2017-07-11T14:15:40.481Z,51.01
2017-07-11T14:18:07.883Z,51.35
2017-07-11T14:20:35.284Z,50.17
2017-07-11T14:23:02.703Z,50.67
2017-07-11T14:25:30.103Z,52.03
2017-07-11T14:27:57.511Z,51.59
2017-07-11T14:30:24.908Z,51.26
2017-07-11T14:32:52.316Z,50.69
2017-07-11T14:35:19.717Z,49.95
2017-07-11T14:37:47.132Z,49.52
2017-07-11T14:40:14.528Z,49.15
2017-07-11T14:42:41.944Z,49.54
2017-07-11T14:45:09.344Z,50.26
2017-07-11T14:47:36.748Z,49.61
2017-07-11T14:50:04.153Z,49.22
2017-07-11T14:52:31.560Z,49.88
2017-07-11T14:54:58.960Z,48.43
2017-07-11T14:57:26.364Z,48.95
2017-07-11T14:59:53.764Z,49.65
2017-07-11T15:02:21.171Z,49.83
2017-07-11T15:04:48.571Z,49.44
2017-07-11T15:07:15.984Z,49.31
2017-07-11T15:09:43.376Z,49.02
2017-07-11T15:12:10.776Z,49.93
2017-07-11T15:14:38.178Z,50.38
2017-07-11T15:17:05.812Z,53.44
2017-07-11T15:19:33.207Z,57.84
2017-07-11T15:22:00.603Z,60.31
2017-07-11T15:24:28.000Z,61.59
2017-07-11T15:26:55.403Z,63.02
2017-07-11T15:29:22.796Z,65.52
2017-07-11T15:31:50.189Z,68.32
2017-07-11T15:34:17.605Z,71.06
2017-07-11T15:36:44.987Z,70.67
2017-07-11T15:39:12.395Z,71.63
2017-07-11T15:41:39.787Z,73.56
2017-07-11T15:44:07.204Z,73.69
2017-07-11T15:46:34.600Z,71.95
2017-07-11T15:49:02.008Z,72.01
2017-07-11T15:51:29.404Z,71.02
2017-07-11T15:53:56.804Z,69.76
2017-07-11T15:56:24.207Z,69.25
2017-07-11T15:58:51.608Z,69.22
2017-07-11T16:01:19.025Z,67.78
2017-07-11T16:03:46.481Z,67.35
2017-07-11T16:06:13.871Z,66.80
2017-07-11T16:08:41.579Z,67.49
2017-07-11T16:11:08.975Z,68.46
2017-07-11T16:13:36.384Z,67.02
2017-07-11T16:16:03.783Z,67.68
2017-07-11T16:18:31.527Z,67.16
2017-07-11T16:20:58.910Z,68.09
2017-07-11T16:23:26.345Z,67.84
2017-07-11T16:25:53.751Z,66.91
2017-07-11T16:28:21.152Z,66.29
2017-07-11T16:30:48.796Z,66.91
2017-07-11T16:33:16.192Z,65.52
2017-07-11T16:35:43.606Z,65.73
2017-07-11T16:38:11.215Z,65.42
2017-07-11T16:40:38.631Z,65.14
2017-07-11T16:43:06.028Z,65.35
2017-07-11T16:45:33.450Z,65.16
2017-07-11T16:48:00.848Z,65.77
2017-07-11T16:50:28.255Z,65.71
2017-07-11T16:52:55.880Z,64.01
2017-07-11T16:55:23.296Z,63.65
2017-07-11T16:57:50.695Z,63.39
2017-07-11T17:00:18.120Z,63.93
2017-07-11T17:02:45.525Z,64.93
2017-07-11T17:05:12.917Z,65.14
2017-07-11T17:07:40.329Z,65.05
2017-07-11T17:10:07.723Z,65.50
2017-07-11T17:12:35.152Z,66.83
2017-07-11T17:15:02.556Z,67.24
2017-07-11T17:17:29.956Z,68.75
2017-07-11T17:19:57.365Z,68.69
2017-07-11T17:22:24.767Z,68.85
2017-07-11T17:24:52.196Z,68.99
2017-07-11T17:27:19.812Z,67.71
2017-07-11T17:29:47.211Z,68.27
2017-07-11T17:32:14.616Z,68.18
2017-07-11T17:34:42.031Z,67.81
2017-07-11T17:37:09.458Z,67.74
2017-07-11T17:39:37.067Z,66.21
2017-07-11T17:42:04.474Z,68.05
2017-07-11T17:44:31.882Z,68.85
2017-07-11T17:46:59.279Z,68.49
2017-07-11T17:49:26.997Z,68.70
2017-07-11T17:51:54.422Z,68.42
2017-07-11T17:54:21.843Z,67.86
2017-07-11T17:56:49.260Z,67.36
2017-07-11T17:59:16.652Z,66.86
2017-07-11T18:01:44.071Z,66.94
2017-07-11T18:04:11.471Z,66.45
2017-07-11T18:06:38.876Z,66.80
2017-07-11T18:09:06.286Z,66.67
2017-07-11T18:11:33.696Z,66.80
2017-07-11T18:14:01.094Z,66.53
2017-07-11T18:16:28.488Z,66.89
2017-07-11T18:18:55.912Z,66.50
2017-07-11T18:21:23.311Z,66.35
2017-07-11T18:23:50.720Z,65.82
2017-07-11T18:26:18.124Z,66.06
2017-07-11T18:28:45.524Z,66.12
2017-07-11T18:31:12.931Z,65.82
2017-07-11T18:33:40.334Z,65.56
2017-07-11T18:36:07.741Z,65.68
2017-07-11T18:38:35.146Z,66.50
2017-07-11T18:41:02.570Z,66.13
2017-07-11T18:43:29.976Z,66.64
2017-07-11T18:45:57.376Z,67.50
2017-07-11T18:48:24.775Z,67.46
2017-07-11T18:50:52.188Z,67.86
2017-07-11T18:53:19.593Z,68.08
2017-07-11T18:55:46.999Z,67.63
2017-07-11T18:58:14.424Z,67.57
2017-07-11T19:00:41.840Z,68.21
2017-07-11T19:03:09.258Z,68.69
2017-07-11T19:05:36.662Z,69.00
2017-07-11T19:08:04.055Z,69.02
2017-07-11T19:10:31.729Z,68.82
2017-07-11T19:12:59.130Z,68.69
2017-07-11T19:15:26.551Z,69.03
2017-07-11T19:17:53.948Z,69.39
2017-07-11T19:20:21.363Z,69.33
2017-07-11T19:22:48.755Z,68.84
2017-07-11T19:25:16.756Z,68.98
2017-07-11T19:27:44.396Z,68.12
2017-07-11T19:30:11.800Z,68.14
2017-07-11T19:32:39.453Z,67.79
2017-07-11T19:35:06.856Z,67.49
2017-07-11T19:37:34.263Z,67.61
2017-07-11T19:40:01.659Z,67.31
2017-07-11T19:42:29.075Z,67.47
2017-07-11T19:44:56.477Z,67.11
2017-07-11T19:47:23.920Z,66.79
2017-07-11T19:49:51.350Z,66.98
2017-07-11T19:52:19.173Z,66.42
2017-07-11T19:54:46.656Z,66.84
2017-07-11T19:57:14.064Z,66.37
2017-07-11T19:59:41.468Z,66.29
2017-07-11T20:02:08.881Z,66.23
2017-07-11T20:04:36.596Z,66.10
2017-07-11T20:07:04.004Z,66.41
2017-07-11T20:09:31.539Z,66.09
2017-07-11T20:11:59.007Z,65.74
2017-07-11T20:14:26.448Z,66.21
2017-07-11T20:16:53.859Z,66.07
2017-07-11T20:19:21.264Z,66.11
2017-07-11T20:21:48.668Z,66.28
2017-07-11T20:24:16.380Z,65.78
2017-07-11T20:26:43.803Z,66.18
2017-07-11T20:29:11.239Z,65.93
2017-07-11T20:31:38.872Z,66.78
2017-07-11T20:34:06.280Z,66.42
2017-07-11T20:36:33.882Z,67.29
2017-07-11T20:39:01.804Z,67.57
2017-07-11T20:41:29.450Z,68.09
2017-07-11T20:43:57.004Z,68.00
2017-07-11T20:46:25.938Z,68.30
2017-07-11T20:51:44.175Z,68.69
2017-07-11T20:54:11.577Z,69.07
2017-07-11T20:56:38.979Z,69.29
2017-07-11T20:59:06.379Z,69.70
2017-07-11T21:01:33.783Z,69.69
2017-07-11T21:04:01.185Z,69.99
2017-07-11T21:06:28.579Z,70.22
2017-07-11T21:08:55.999Z,69.62
2017-07-11T21:11:23.399Z,68.43
2017-07-11T21:13:50.816Z,68.02
2017-07-11T21:16:18.216Z,68.18
2017-07-11T21:18:45.629Z,68.21
2017-07-11T21:21:13.031Z,68.28
2017-07-11T21:23:40.440Z,67.95
2017-07-11T21:26:07.840Z,67.93
2017-07-11T21:28:35.254Z,67.91
2017-07-11T21:31:02.864Z,68.36
2017-07-11T21:33:30.268Z,68.48
2017-07-11T21:35:57.677Z,67.88
2017-07-11T21:38:25.088Z,68.20
2017-07-11T21:40:52.518Z,68.55
2017-07-11T21:43:19.910Z,68.04
2017-07-11T21:45:47.318Z,68.63
2017-07-11T21:48:14.719Z,68.26
2017-07-11T21:50:42.123Z,67.61
2017-07-11T21:53:09.528Z,67.76
2017-07-11T21:55:36.932Z,67.75
2017-07-11T21:58:04.343Z,67.60
2017-07-11T22:00:31.745Z,67.65
2017-07-11T22:02:59.151Z,67.46
2017-07-11T22:05:26.572Z,66.99
2017-07-11T22:07:54.001Z,66.78
2017-07-11T22:10:21.419Z,67.13
2017-07-11T22:12:48.815Z,66.78
2017-07-11T22:15:16.213Z,66.93
2017-07-11T22:17:43.620Z,66.75
2017-07-11T22:20:11.023Z,67.26
2017-07-11T22:22:38.426Z,67.21
2017-07-11T22:25:05.828Z,66.93
2017-07-11T22:27:33.223Z,67.40
2017-07-11T22:30:00.633Z,67.48
2017-07-11T22:32:28.035Z,67.63
2017-07-11T22:34:55.440Z,67.76
2017-07-11T22:37:22.844Z,68.36
2017-07-11T22:39:50.251Z,68.61
2017-07-11T22:42:17.651Z,69.47
2017-07-11T22:44:45.063Z,69.79
2017-07-11T22:47:12.503Z,70.21
2017-07-11T22:49:39.912Z,70.41
2017-07-11T22:52:07.323Z,70.43
2017-07-11T22:54:34.955Z,70.57
2017-07-11T22:57:02.355Z,70.50
2017-07-11T22:59:29.776Z,70.68
2017-07-11T23:01:57.178Z,70.88
2017-07-11T23:04:24.583Z,71.28
2017-07-11T23:06:51.984Z,71.44
2017-07-11T23:09:19.393Z,71.52
2017-07-11T23:11:46.788Z,72.23
2017-07-11T23:14:14.195Z,72.38
2017-07-11T23:16:41.591Z,73.08
2017-07-11T23:19:09.000Z,73.04
2017-07-11T23:21:36.403Z,72.78
2017-07-11T23:24:03.812Z,72.50
2017-07-11T23:26:31.208Z,72.31
2017-07-11T23:28:58.623Z,72.69
2017-07-11T23:31:26.023Z,72.31
2017-07-11T23:33:53.422Z,72.78
2017-07-11T23:36:20.824Z,72.56
2017-07-11T23:38:48.299Z,72.29
2017-07-11T23:41:15.699Z,72.19
2017-07-11T23:43:43.099Z,72.30
2017-07-11T23:46:10.508Z,72.37
2017-07-11T23:48:37.907Z,72.54
2017-07-11T23:51:05.316Z,72.61
2017-07-11T23:53:32.716Z,72.37
2017-07-11T23:56:00.115Z,71.85
2017-07-11T23:58:27.516Z,72.15
